This is the latest recevied weather packets stored in our database for station/object K5NWZ. If no packets are shown the sender has not sent any weather packets the latest 10 day(s).
| Time | Temp. | Humidity | Pressure | Rain* | Wind** | Luminosity | Snow |
|---|---|---|---|---|---|---|---|
| 1777478858 | 10.56° C | 56% | 1028.3 hPa | 0 mm | - | 479 W/m² | - |
| 1777478554 | 11.11° C | 56% | 1028.2 hPa | 0 mm | - | 445 W/m² | - |
| 1777478252 | 11.11° C | 56% | 1028.3 hPa | 0 mm | - | 611 W/m² | - |
| 1777477037 | 11.67° C | 56% | 1028.6 hPa | 0 mm | - | 467 W/m² | - |
| 1777475823 | 10.56° C | 60% | 1028.7 hPa | 0 mm | - | 499 W/m² | - |
| 1777474607 | 8.89° C | 63% | 1028.8 hPa | 0 mm | - | 385 W/m² | - |
| 1777473394 | 8.89° C | 62% | 1029.1 hPa | 0 mm | - | 322 W/m² | - |
| 1777469756 | 6.11° C | 69% | 1029.4 hPa | 0 mm | - | 155 W/m² | - |
| 1777468539 | 6.11° C | 72% | 1029 hPa | 0 mm | - | 105 W/m² | - |
| 1777466110 | 2.78° C | 81% | 1028.9 hPa | 0 mm | - | 24 W/m² | - |
| 1777465807 | 2.78° C | 81% | 1028.8 hPa | 0 mm | - | 20 W/m² | - |
| 1777465201 | 2.78° C | 81% | 1028.7 hPa | 0 mm | - | 13 W/m² | - |
| 1777464897 | 2.78° C | 82% | 1028.9 hPa | 0 mm | - | 10 W/m² | - |
| 1777464592 | 2.78° C | 82% | 1028.6 hPa | 0 mm | - | 7 W/m² | - |
| 1777462767 | 3.33° C | 80% | 1028.6 hPa | 0 mm | - | 0 W/m² | - |
| 1777462462 | 2.78° C | 81% | 1028.6 hPa | 0 mm | - | 0 W/m² | - |
| 1777462159 | 2.78° C | 81% | 1028.4 hPa | 0 mm | - | 0 W/m² | - |
| 1777461855 | 2.78° C | 82% | 1028.4 hPa | 0 mm | - | 0 W/m² | - |
| 1777461552 | 2.78° C | 82% | 1028.7 hPa | 0 mm | - | 0 W/m² | - |
| 1777461248 | 2.78° C | 82% | 1028.6 hPa | 0 mm | - | 0 W/m² | - |
| 1777460943 | 3.33° C | 81% | 1028.7 hPa | 0 mm | - | 0 W/m² | - |
| 1777460638 | 3.33° C | 81% | 1028.7 hPa | 0 mm | - | 0 W/m² | - |
| 1777460334 | 3.33° C | 80% | 1028.8 hPa | 0 mm | - | 0 W/m² | - |
| 1777460031 | 3.33° C | 80% | 1028.7 hPa | 0 mm | - | 0 W/m² | - |
| 1777459728 | 3.89° C | 80% | 1028.7 hPa | 0 mm | - | 0 W/m² | - |
* Rain latest hour (hover to see other rain measurements)
** Current wind speed in m/s (hover to see current wind gust speed)